Time;durP1;ratioP1;P1;durP2;ratioP2;P2;SDS_P1;SDS_P2;PMS_P1;PMS_P2;Temp;Humidity;BMP_temperature;BMP_pressure;BME280_temperature;BME280_humidity;BME280_pressure;Samples;Min_cycle;Max_cycle;Signal;HPM_P1;HPM_P2
2024/01/22 00:00:09;;;;;;;8.47;5.57;;;6.90;99.90;;;;;;5096001;28;20440;-80
2024/01/22 00:02:41;;;;;;;7.40;5.37;;;6.90;99.90;;;;;;5096003;28;20475;-81
2024/01/22 00:05:10;;;;;;;6.00;4.70;;;6.90;99.90;;;;;;5096427;28;20553;-81
2024/01/22 00:07:38;;;;;;;5.53;4.80;;;6.90;99.90;;;;;;5096090;28;20539;-80
2024/01/22 00:10:08;;;;;;;5.57;4.90;;;6.90;99.90;;;;;;5095953;28;20469;-82
2024/01/22 00:12:37;;;;;;;6.90;5.30;;;6.90;99.90;;;;;;5097319;28;20541;-82
2024/01/22 00:15:08;;;;;;;8.03;5.57;;;6.90;99.90;;;;;;5096184;28;20454;-80
2024/01/22 00:17:37;;;;;;;5.43;4.50;;;6.90;99.90;;;;;;5095582;28;20443;-81
2024/01/22 00:20:07;;;;;;;6.40;4.87;;;6.90;99.90;;;;;;5097210;28;20431;-80
2024/01/22 00:22:35;;;;;;;7.80;4.80;;;7.00;99.90;;;;;;5096254;28;20504;-79
2024/01/22 00:25:05;;;;;;;5.50;4.83;;;7.00;99.90;;;;;;5095887;28;20577;-81
2024/01/22 00:27:33;;;;;;;5.93;4.40;;;7.00;99.90;;;;;;5095572;28;20524;-81
2024/01/22 00:30:01;;;;;;;6.20;4.43;;;7.00;99.90;;;;;;5095734;28;20477;-81
2024/01/22 00:32:31;;;;;;;9.30;5.30;;;7.00;99.90;;;;;;5096167;28;20471;-85
2024/01/22 00:35:00;;;;;;;5.10;4.27;;;7.00;99.90;;;;;;5096902;28;20477;-81
2024/01/22 00:37:28;;;;;;;5.13;4.27;;;7.00;99.90;;;;;;5096209;28;20436;-84
2024/01/22 00:39:57;;;;;;;8.53;4.60;;;7.10;99.90;;;;;;5096059;28;20497;-82
2024/01/22 00:42:26;;;;;;;6.53;4.67;;;7.10;99.90;;;;;;5096335;28;20471;-80
2024/01/22 00:44:54;;;;;;;5.97;4.27;;;7.10;99.90;;;;;;5096426;28;20455;-81
2024/01/22 00:47:23;;;;;;;4.13;3.37;;;7.10;99.90;;;;;;5096450;28;20448;-83
2024/01/22 00:49:52;;;;;;;6.90;4.33;;;7.10;99.90;;;;;;5096161;28;20468;-83
2024/01/22 00:52:21;;;;;;;4.43;3.90;;;7.20;99.90;;;;;;5095546;28;20889;-82
2024/01/22 00:54:49;;;;;;;8.50;4.63;;;7.20;99.90;;;;;;5096745;28;20451;-80
2024/01/22 00:57:19;;;;;;;4.50;3.83;;;7.20;99.90;;;;;;5096117;28;20455;-79
2024/01/22 00:59:47;;;;;;;8.17;4.17;;;7.20;99.90;;;;;;5096256;28;20443;-84
2024/01/22 01:02:16;;;;;;;5.87;3.60;;;7.20;99.90;;;;;;5095534;28;20477;-82
2024/01/22 01:04:45;;;;;;;4.47;3.90;;;7.30;99.90;;;;;;5095463;28;20504;-82
2024/01/22 01:07:15;;;;;;;4.87;3.87;;;7.30;99.90;;;;;;5095765;28;20451;-82
2024/01/22 01:09:43;;;;;;;4.53;3.60;;;7.30;99.90;;;;;;5096598;28;20472;-84
2024/01/22 01:12:11;;;;;;;4.83;3.80;;;7.30;99.90;;;;;;5098690;28;20473;-82
2024/01/22 01:14:40;;;;;;;4.80;3.77;;;7.30;99.90;;;;;;5097674;28;20466;-83
2024/01/22 01:17:08;;;;;;;5.50;4.00;;;7.30;99.90;;;;;;5097071;28;20455;-85
2024/01/22 01:19:36;;;;;;;4.00;3.57;;;7.30;99.90;;;;;;5096460;28;20548;-83
2024/01/22 01:22:05;;;;;;;5.07;3.67;;;7.30;99.90;;;;;;5095845;28;20478;-83
2024/01/22 01:24:34;;;;;;;7.77;4.33;;;7.30;99.90;;;;;;5096476;28;20475;-83
2024/01/22 01:27:03;;;;;;;4.90;4.30;;;7.30;99.90;;;;;;5095955;28;20450;-83
2024/01/22 01:29:31;;;;;;;8.03;4.20;;;7.30;99.90;;;;;;5095790;28;20478;-84
2024/01/22 01:31:59;;;;;;;6.23;4.30;;;7.30;99.90;;;;;;5098088;28;20456;-84
2024/01/22 01:34:28;;;;;;;4.83;4.20;;;7.30;99.90;;;;;;5095163;28;20513;-82
2024/01/22 01:36:56;;;;;;;6.33;3.97;;;7.40;99.90;;;;;;5095529;28;20799;-84
2024/01/22 01:39:24;;;;;;;5.10;3.83;;;7.40;99.90;;;;;;5095384;28;20451;-83
2024/01/22 01:41:54;;;;;;;5.03;3.83;;;7.40;99.90;;;;;;5095539;28;20483;-85
2024/01/22 01:44:48;;;;;;;4.87;3.60;;;7.40;99.90;;;;;;5095133;28;20552;-86
2024/01/22 01:47:16;;;;;;;5.00;3.80;;;7.40;99.90;;;;;;5094204;28;20474;-84
2024/01/22 01:49:47;;;;;;;4.50;3.80;;;7.40;99.90;;;;;;5094907;28;20467;-84
2024/01/22 01:52:18;;;;;;;4.67;3.80;;;7.40;99.90;;;;;;5094399;28;20466;-84
2024/01/22 01:54:47;;;;;;;4.30;3.57;;;7.50;99.90;;;;;;5094693;28;20450;-82
2024/01/22 01:57:20;;;;;;;3.93;3.47;;;7.50;99.90;;;;;;5094513;28;20451;-81
2024/01/22 01:59:48;;;;;;;4.10;3.70;;;7.50;99.90;;;;;;5095687;28;20850;-84
2024/01/22 02:02:17;;;;;;;4.43;3.23;;;7.60;99.90;;;;;;5093939;28;20466;-80
2024/01/22 02:04:45;;;;;;;4.63;4.00;;;7.60;99.90;;;;;;5094055;28;20476;-80
2024/01/22 02:07:14;;;;;;;4.37;3.63;;;7.60;99.90;;;;;;5093739;28;20456;-81
2024/01/22 02:09:47;;;;;;;4.67;4.17;;;7.60;99.90;;;;;;5095979;28;20474;-84
2024/01/22 02:12:18;;;;;;;5.90;4.30;;;7.70;99.90;;;;;;5096581;28;20471;-82
2024/01/22 02:14:47;;;;;;;3.33;3.00;;;7.70;99.90;;;;;;5096224;28;20445;-82
2024/01/22 02:17:16;;;;;;;6.77;3.90;;;7.70;99.90;;;;;;5096816;28;20500;-84
2024/01/22 02:19:44;;;;;;;3.73;3.30;;;7.80;99.90;;;;;;5095804;28;20447;-82
2024/01/22 02:22:13;;;;;;;4.03;3.17;;;7.80;99.90;;;;;;5095881;28;20881;-83
2024/01/22 02:24:43;;;;;;;4.07;3.67;;;7.80;99.90;;;;;;5097059;28;20489;-82
2024/01/22 02:27:11;;;;;;;3.90;3.50;;;7.80;99.90;;;;;;5095833;28;20444;-80
2024/01/22 02:29:40;;;;;;;5.20;3.27;;;7.90;99.90;;;;;;5095891;28;20842;-83
2024/01/22 02:32:08;;;;;;;3.80;3.10;;;7.90;99.90;;;;;;5095295;28;20501;-83
2024/01/22 02:34:37;;;;;;;3.50;3.07;;;7.90;99.90;;;;;;5095634;28;20448;-83
2024/01/22 02:37:05;;;;;;;8.93;3.80;;;8.00;99.90;;;;;;5095106;28;20448;-82
2024/01/22 02:39:35;;;;;;;6.83;3.27;;;8.00;99.90;;;;;;5095924;28;20524;-83
2024/01/22 02:42:05;;;;;;;3.40;3.10;;;8.00;99.90;;;;;;5097356;28;20825;-84
2024/01/22 02:44:35;;;;;;;4.50;3.87;;;8.00;99.90;;;;;;5099964;28;20433;-83
2024/01/22 02:47:04;;;;;;;5.70;3.00;;;8.10;99.90;;;;;;5100242;28;20452;-81
2024/01/22 02:49:34;;;;;;;4.60;3.00;;;8.10;99.90;;;;;;5098916;28;20439;-84
2024/01/22 02:52:03;;;;;;;3.00;2.53;;;8.20;99.90;;;;;;5098436;28;20460;-82
2024/01/22 02:54:31;;;;;;;4.60;3.43;;;8.20;99.90;;;;;;5099050;28;20835;-82
2024/01/22 02:57:00;;;;;;;3.47;3.00;;;8.20;99.90;;;;;;5098946;28;20505;-82
2024/01/22 02:59:29;;;;;;;4.63;3.40;;;8.20;99.90;;;;;;5100334;28;20436;-81
2024/01/22 03:01:58;;;;;;;3.50;2.77;;;8.30;99.90;;;;;;5098905;28;20801;-81
2024/01/22 03:04:27;;;;;;;3.03;2.83;;;8.30;99.90;;;;;;5100419;28;20493;-82
2024/01/22 03:06:56;;;;;;;3.80;3.40;;;8.40;99.90;;;;;;5098500;28;20799;-83
2024/01/22 03:09:25;;;;;;;4.30;2.87;;;8.40;99.90;;;;;;5098030;28;20869;-83
2024/01/22 03:11:54;;;;;;;3.37;2.93;;;8.40;99.90;;;;;;5098346;28;20471;-80
2024/01/22 03:14:22;;;;;;;4.30;3.40;;;8.40;99.90;;;;;;5098599;28;20984;-83
2024/01/22 03:16:52;;;;;;;6.63;3.77;;;8.50;99.90;;;;;;5097707;28;20493;-82
2024/01/22 03:19:20;;;;;;;3.53;2.97;;;8.50;99.90;;;;;;5097628;28;20448;-80
2024/01/22 03:21:48;;;;;;;4.03;3.07;;;8.50;99.90;;;;;;5097623;28;20481;-80
2024/01/22 03:24:17;;;;;;;4.20;3.27;;;8.60;99.90;;;;;;5099711;28;20539;-83
2024/01/22 03:26:45;;;;;;;3.83;3.27;;;8.60;99.90;;;;;;5103079;28;20452;-83
2024/01/22 03:29:14;;;;;;;4.40;4.00;;;8.60;99.90;;;;;;5098037;28;20451;-85
2024/01/22 03:31:42;;;;;;;4.70;3.30;;;8.60;99.90;;;;;;5098062;28;20933;-84
2024/01/22 03:34:11;;;;;;;5.20;3.63;;;8.60;99.90;;;;;;5097768;28;20452;-84
2024/01/22 03:36:40;;;;;;;4.70;3.80;;;8.50;99.90;;;;;;5097350;28;20816;-78
2024/01/22 03:39:08;;;;;;;5.00;4.20;;;8.60;99.90;;;;;;5097297;28;20464;-82
2024/01/22 03:41:41;;;;;;;5.13;4.10;;;8.60;99.90;;;;;;5097584;28;20468;-81
2024/01/22 03:44:09;;;;;;;4.30;3.90;;;8.60;99.90;;;;;;5097234;28;20949;-85
2024/01/22 03:46:37;;;;;;;5.33;3.33;;;8.60;99.90;;;;;;5097205;28;20452;-84
2024/01/22 03:49:06;;;;;;;4.03;3.60;;;8.60;99.90;;;;;;5098188;28;20434;-82
2024/01/22 03:51:34;;;;;;;6.00;3.70;;;8.60;99.90;;;;;;5097849;28;20476;-84
2024/01/22 03:54:03;;;;;;;4.93;3.50;;;8.60;99.90;;;;;;5096841;28;20503;-83
2024/01/22 03:56:31;;;;;;;4.10;3.50;;;8.70;99.90;;;;;;5096697;28;20454;-81
2024/01/22 03:59:00;;;;;;;5.10;4.00;;;8.70;99.90;;;;;;5096190;28;20444;-84
2024/01/22 04:01:28;;;;;;;5.13;4.07;;;8.70;99.90;;;;;;5096483;28;20456;-83
2024/01/22 04:03:57;;;;;;;7.80;3.80;;;8.70;99.90;;;;;;5097669;28;20932;-81
2024/01/22 04:06:25;;;;;;;5.30;4.17;;;8.80;99.90;;;;;;5096975;28;20452;-82
2024/01/22 04:08:55;;;;;;;4.50;4.03;;;8.70;99.90;;;;;;5096260;28;20493;-79
2024/01/22 04:11:24;;;;;;;5.10;4.10;;;8.70;99.90;;;;;;5096431;28;20496;-84
2024/01/22 04:13:52;;;;;;;4.40;4.00;;;8.70;99.90;;;;;;5097083;28;20452;-83
2024/01/22 04:16:22;;;;;;;4.00;3.60;;;8.60;99.90;;;;;;5097936;28;20814;-84
2024/01/22 04:18:50;;;;;;;5.10;4.60;;;8.60;99.90;;;;;;5097118;28;20484;-82
2024/01/22 04:21:19;;;;;;;6.57;4.60;;;8.60;99.90;;;;;;5096493;28;20451;-82
2024/01/22 04:23:47;;;;;;;5.20;4.70;;;8.60;99.90;;;;;;5096331;28;20444;-81
2024/01/22 04:26:17;;;;;;;4.80;4.17;;;8.60;99.90;;;;;;5096977;28;20459;-83
2024/01/22 04:28:45;;;;;;;4.30;3.90;;;8.50;99.90;;;;;;5096757;28;20439;-83
2024/01/22 04:31:14;;;;;;;4.07;3.60;;;8.50;99.90;;;;;;5096397;28;20475;-84
2024/01/22 04:33:43;;;;;;;6.23;3.63;;;8.60;99.90;;;;;;5095980;28;20455;-85
2024/01/22 04:36:12;;;;;;;3.57;3.27;;;8.60;99.90;;;;;;5097826;28;20479;-82
2024/01/22 04:38:40;;;;;;;4.40;3.97;;;8.50;99.90;;;;;;5095552;28;20945;-82
2024/01/22 04:41:09;;;;;;;4.23;3.83;;;8.60;99.90;;;;;;5097911;28;20457;-83
2024/01/22 04:43:38;;;;;;;5.87;3.60;;;8.60;99.90;;;;;;5096001;28;20791;-81
2024/01/22 04:46:07;;;;;;;3.90;3.33;;;8.60;99.90;;;;;;5096597;28;20432;-81
2024/01/22 04:48:35;;;;;;;3.30;3.00;;;8.60;99.90;;;;;;5095604;28;20921;-80
2024/01/22 04:51:04;;;;;;;3.10;2.80;;;8.60;99.90;;;;;;5095901;28;21073;-83
2024/01/22 04:53:33;;;;;;;3.73;3.10;;;8.60;99.90;;;;;;5095931;28;20440;-84
2024/01/22 04:56:02;;;;;;;3.97;2.77;;;8.60;99.90;;;;;;5095825;28;20452;-82
2024/01/22 04:58:30;;;;;;;4.60;2.90;;;8.70;99.90;;;;;;5095145;28;20444;-83
2024/01/22 05:01:00;;;;;;;3.20;2.90;;;8.70;99.90;;;;;;5095111;28;20448;-84
2024/01/22 05:03:28;;;;;;;4.23;2.93;;;8.70;99.90;;;;;;5094917;28;20475;-81
2024/01/22 05:05:56;;;;;;;3.57;3.23;;;8.80;99.90;;;;;;5094597;28;20447;-80
2024/01/22 05:08:25;;;;;;;3.30;3.00;;;8.80;99.90;;;;;;5094835;28;20440;-77
2024/01/22 05:10:53;;;;;;;3.50;3.00;;;8.80;99.90;;;;;;5095081;28;20455;-81
2024/01/22 05:13:23;;;;;;;3.67;2.90;;;8.90;99.90;;;;;;5095910;28;20509;-78
2024/01/22 05:15:52;;;;;;;3.93;2.87;;;8.90;99.90;;;;;;5094865;28;20460;-81
2024/01/22 05:18:21;;;;;;;2.80;2.60;;;8.90;99.90;;;;;;5094677;28;20483;-81
2024/01/22 05:20:52;;;;;;;4.00;2.47;;;9.00;99.90;;;;;;5094504;28;20448;-82
2024/01/22 05:23:20;;;;;;;3.33;3.03;;;9.00;99.90;;;;;;5094749;28;20506;-81
2024/01/22 05:25:48;;;;;;;3.13;2.80;;;9.00;99.90;;;;;;5094365;28;20460;-84
2024/01/22 05:28:16;;;;;;;2.80;2.57;;;9.00;99.90;;;;;;5094406;28;20941;-82
2024/01/22 05:30:45;;;;;;;3.47;2.83;;;9.00;99.90;;;;;;5094091;28;20444;-81
2024/01/22 05:33:13;;;;;;;2.60;2.40;;;9.10;99.90;;;;;;5094264;28;20480;-79
2024/01/22 05:35:43;;;;;;;2.97;2.67;;;9.10;99.90;;;;;;5094454;28;20448;-83
2024/01/22 05:38:14;;;;;;;3.27;2.97;;;9.20;99.90;;;;;;5097550;28;20440;-85
2024/01/22 05:40:42;;;;;;;3.20;2.63;;;9.20;99.90;;;;;;5097344;28;20432;-82
2024/01/22 05:43:11;;;;;;;2.53;2.33;;;9.20;99.90;;;;;;5097458;28;20487;-83
2024/01/22 05:45:39;;;;;;;3.40;2.50;;;9.20;99.90;;;;;;5094836;28;20444;-80
2024/01/22 05:48:08;;;;;;;3.23;2.93;;;9.30;99.90;;;;;;5096168;28;20524;-82
2024/01/22 05:50:37;;;;;;;3.23;2.67;;;9.30;99.90;;;;;;5094385;28;20459;-79
2024/01/22 05:53:06;;;;;;;3.70;3.17;;;9.30;99.90;;;;;;5094546;28;20483;-80
2024/01/22 05:55:35;;;;;;;3.00;2.67;;;9.30;99.90;;;;;;5095880;28;20435;-83
2024/01/22 05:58:05;;;;;;;3.10;2.80;;;9.30;99.90;;;;;;5094605;28;20448;-80
2024/01/22 06:00:33;;;;;;;3.20;2.90;;;9.40;99.90;;;;;;5094893;28;20921;-83
2024/01/22 06:03:01;;;;;;;3.53;3.03;;;9.40;99.90;;;;;;5094155;28;20465;-82
2024/01/22 06:05:30;;;;;;;3.10;2.90;;;9.40;99.90;;;;;;5094808;28;20440;-81
2024/01/22 06:07:59;;;;;;;2.97;2.77;;;9.50;99.90;;;;;;5094524;28;20452;-81
2024/01/22 06:10:29;;;;;;;3.40;3.10;;;9.50;99.90;;;;;;5094565;28;20474;-82
2024/01/22 06:12:58;;;;;;;3.23;2.93;;;9.50;99.90;;;;;;5095644;28;20880;-81
2024/01/22 06:15:28;;;;;;;3.20;2.90;;;9.50;99.90;;;;;;5096187;28;20505;-82
2024/01/22 06:17:56;;;;;;;3.77;3.10;;;9.50;99.90;;;;;;5098973;28;20543;-83
2024/01/22 06:20:24;;;;;;;3.37;3.07;;;9.50;99.90;;;;;;5098220;28;20455;-80
2024/01/22 06:22:53;;;;;;;4.30;4.00;;;9.50;99.90;;;;;;5098347;28;20464;-78
2024/01/22 06:25:21;;;;;;;4.07;3.77;;;9.60;99.90;;;;;;5098448;28;20444;-79
2024/01/22 06:27:51;;;;;;;4.80;3.37;;;9.60;99.90;;;;;;5098400;28;20451;-81
2024/01/22 06:30:19;;;;;;;4.90;4.50;;;9.60;99.90;;;;;;5098246;28;20869;-80
2024/01/22 06:32:47;;;;;;;4.10;3.80;;;9.60;99.90;;;;;;5098337;28;20881;-84
2024/01/22 06:35:16;;;;;;;4.13;3.73;;;9.60;99.90;;;;;;5098568;28;20542;-80
2024/01/22 06:37:44;;;;;;;4.23;3.83;;;9.60;99.90;;;;;;5098017;28;20452;-82
2024/01/22 06:40:16;;;;;;;4.10;3.70;;;9.70;99.90;;;;;;5098654;28;20452;-82
2024/01/22 06:42:44;;;;;;;3.83;3.53;;;9.70;99.90;;;;;;5098807;28;20553;-81
2024/01/22 06:45:14;;;;;;;3.90;3.60;;;9.70;99.90;;;;;;5098651;28;20440;-81
2024/01/22 06:47:42;;;;;;;4.50;4.20;;;9.70;99.90;;;;;;5097723;28;20983;-83
2024/01/22 06:50:11;;;;;;;4.60;4.30;;;9.70;99.90;;;;;;5098415;28;20443;-83
2024/01/22 06:52:40;;;;;;;4.73;4.33;;;9.70;99.90;;;;;;5098566;28;20504;-84
2024/01/22 06:55:09;;;;;;;4.00;3.70;;;9.70;99.90;;;;;;5098209;28;20490;-83
2024/01/22 06:57:36;;;;;;;3.80;3.60;;;9.70;99.90;;;;;;5099678;28;20475;-85
2024/01/22 07:00:07;;;;;;;4.27;3.87;;;9.80;99.90;;;;;;5098202;28;20452;-85
2024/01/22 07:02:38;;;;;;;4.47;4.17;;;9.80;99.90;;;;;;5098347;28;20467;-84
2024/01/22 07:05:08;;;;;;;4.60;4.30;;;9.80;99.90;;;;;;5098731;28;20535;-82
2024/01/22 07:07:37;;;;;;;4.57;4.27;;;9.80;99.90;;;;;;5098309;28;20547;-82
2024/01/22 07:10:07;;;;;;;4.80;4.40;;;9.80;99.90;;;;;;5097653;28;20455;-84
2024/01/22 07:12:36;;;;;;;4.73;4.43;;;9.80;99.90;;;;;;5098574;28;20478;-83
2024/01/22 07:15:05;;;;;;;4.23;3.93;;;9.90;99.90;;;;;;5097842;28;20440;-85
2024/01/22 07:17:34;;;;;;;4.70;4.40;;;9.90;99.90;;;;;;5098976;28;20436;-82
2024/01/22 07:20:04;;;;;;;5.37;4.97;;;9.90;99.90;;;;;;5098323;28;20449;-82
2024/01/22 07:22:33;;;;;;;5.20;4.80;;;9.90;99.90;;;;;;5097360;28;20472;-81
2024/01/22 07:25:01;;;;;;;5.33;4.93;;;9.90;99.90;;;;;;5096920;28;20482;-80
2024/01/22 07:27:30;;;;;;;4.70;4.40;;;9.90;99.90;;;;;;5096585;28;20495;-84
2024/01/22 07:29:58;;;;;;;5.70;5.30;;;9.90;99.90;;;;;;5098759;28;20474;-84
2024/01/22 07:32:27;;;;;;;4.97;4.60;;;10.00;99.90;;;;;;5098069;28;20566;-82
2024/01/22 07:34:55;;;;;;;5.50;5.00;;;10.00;99.90;;;;;;5097442;28;20448;-83
2024/01/22 07:37:25;;;;;;;5.23;4.83;;;10.00;99.90;;;;;;5096934;28;20452;-81
2024/01/22 07:39:53;;;;;;;5.40;5.00;;;10.00;99.90;;;;;;5097016;28;20452;-84
2024/01/22 07:42:21;;;;;;;5.03;4.63;;;10.00;99.90;;;;;;5096707;28;20475;-82
2024/01/22 07:44:50;;;;;;;5.20;4.80;;;10.10;99.90;;;;;;5096688;28;20537;-80
2024/01/22 07:47:19;;;;;;;5.23;4.83;;;10.10;99.90;;;;;;5095696;28;20495;-83
2024/01/22 07:49:50;;;;;;;4.27;3.87;;;10.10;99.90;;;;;;5095946;28;20440;-83
2024/01/22 07:52:18;;;;;;;5.20;4.60;;;10.10;99.90;;;;;;5095554;28;20832;-81
2024/01/22 07:54:48;;;;;;;4.80;4.50;;;10.10;99.90;;;;;;5096331;28;20444;-83
2024/01/22 07:57:17;;;;;;;4.30;4.00;;;10.10;99.90;;;;;;5096085;28;20531;-79
2024/01/22 07:59:46;;;;;;;5.73;5.13;;;10.20;99.90;;;;;;5096786;28;20448;-83
2024/01/22 08:02:16;;;;;;;3.50;3.20;;;10.20;99.90;;;;;;5096819;28;20468;-82
2024/01/22 08:04:45;;;;;;;3.90;3.33;;;10.20;99.90;;;;;;5096164;28;20444;-84
2024/01/22 08:07:14;;;;;;;4.67;3.47;;;10.30;99.90;;;;;;5095781;28;20888;-83
2024/01/22 08:09:45;;;;;;;4.80;2.93;;;10.30;99.90;;;;;;5095994;28;20444;-82
2024/01/22 08:12:15;;;;;;;4.20;2.70;;;10.30;99.90;;;;;;5096304;28;20464;-84
2024/01/22 08:14:43;;;;;;;3.23;2.60;;;10.40;99.90;;;;;;5096147;28;20468;-84
2024/01/22 08:17:12;;;;;;;5.17;3.20;;;10.40;99.90;;;;;;5095886;28;20440;-83
2024/01/22 08:19:40;;;;;;;3.50;2.33;;;10.40;99.90;;;;;;5096201;28;20472;-83
2024/01/22 08:22:10;;;;;;;3.07;2.03;;;10.50;99.90;;;;;;5096077;28;20475;-80
2024/01/22 08:24:38;;;;;;;5.83;2.40;;;10.50;99.90;;;;;;5095969;28;20443;-83
2024/01/22 08:27:06;;;;;;;4.30;2.50;;;10.60;99.90;;;;;;5095707;28;20440;-83
2024/01/22 08:29:36;;;;;;;3.30;2.03;;;10.60;99.90;;;;;;5096779;28;20805;-82
2024/01/22 08:32:05;;;;;;;2.80;2.00;;;10.70;99.90;;;;;;5095572;28;20467;-83
2024/01/22 08:34:38;;;;;;;3.17;2.13;;;10.70;99.90;;;;;;5096610;28;20465;-83
2024/01/22 08:37:07;;;;;;;7.13;2.10;;;10.80;99.90;;;;;;5095669;28;20500;-84
2024/01/22 08:39:37;;;;;;;4.07;1.93;;;10.80;99.90;;;;;;5094356;28;20455;-85
2024/01/22 08:42:08;;;;;;;4.00;2.50;;;10.90;99.90;;;;;;5095158;28;20468;-83
2024/01/22 08:44:38;;;;;;;4.00;2.00;;;10.90;99.90;;;;;;5095245;28;20455;-78
2024/01/22 08:47:07;;;;;;;5.80;1.93;;;11.00;99.90;;;;;;5095198;28;20458;-82
2024/01/22 08:49:36;;;;;;;7.27;2.07;;;11.00;99.90;;;;;;5095033;28;20459;-82
2024/01/22 08:52:05;;;;;;;4.47;1.93;;;11.10;99.90;;;;;;5095285;28;20495;-82
2024/01/22 08:54:34;;;;;;;6.57;2.23;;;11.10;99.90;;;;;;5094776;28;20836;-82
2024/01/22 08:57:03;;;;;;;4.20;1.67;;;11.10;99.90;;;;;;5095793;28;20428;-82
2024/01/22 08:59:32;;;;;;;3.97;2.20;;;11.20;99.90;;;;;;5095960;28;20869;-82
2024/01/22 09:02:02;;;;;;;5.33;2.00;;;11.20;99.90;;;;;;5094790;28;20472;-79
2024/01/22 09:04:31;;;;;;;2.77;1.73;;;11.20;99.90;;;;;;5094719;28;20528;-83
2024/01/22 09:06:59;;;;;;;2.83;1.67;;;11.20;99.90;;;;;;5094765;28;20451;-82
2024/01/22 09:09:27;;;;;;;3.20;1.50;;;11.30;99.90;;;;;;5094808;28;20452;-83
2024/01/22 09:11:56;;;;;;;3.77;1.87;;;11.30;99.90;;;;;;5094547;28;20521;-80
2024/01/22 09:14:24;;;;;;;3.10;1.87;;;11.30;99.90;;;;;;5094610;28;20993;-82
2024/01/22 09:16:52;;;;;;;3.03;1.80;;;11.30;99.90;;;;;;5094972;28;20455;-80
2024/01/22 09:19:22;;;;;;;3.40;1.90;;;11.30;99.90;;;;;;5094817;28;20448;-85
2024/01/22 09:21:50;;;;;;;3.30;1.60;;;11.30;99.90;;;;;;5096130;28;20993;-83
2024/01/22 09:24:18;;;;;;;3.37;2.60;;;11.40;99.90;;;;;;5095974;28;20444;-85
2024/01/22 09:26:47;;;;;;;3.30;1.77;;;11.40;99.90;;;;;;5096085;28;20488;-81
2024/01/22 09:29:15;;;;;;;2.77;1.80;;;11.30;99.90;;;;;;5096936;28;20461;-82
2024/01/22 09:31:43;;;;;;;2.90;1.77;;;11.30;99.90;;;;;;5096260;28;20478;-84
2024/01/22 09:34:11;;;;;;;4.93;1.77;;;11.30;99.90;;;;;;5095907;28;20514;-85
2024/01/22 09:36:41;;;;;;;5.30;2.40;;;11.30;99.90;;;;;;5096821;28;20441;-84
2024/01/22 09:39:09;;;;;;;4.40;2.07;;;11.30;99.90;;;;;;5096948;28;20452;-82
2024/01/22 09:41:38;;;;;;;5.43;2.10;;;11.30;99.90;;;;;;5096379;28;20463;-82
2024/01/22 09:44:08;;;;;;;3.90;1.97;;;11.30;99.90;;;;;;5096486;28;20509;-82
2024/01/22 09:46:36;;;;;;;4.07;2.53;;;11.30;99.90;;;;;;5096014;28;20448;-82
2024/01/22 09:49:05;;;;;;;3.20;2.00;;;11.20;99.90;;;;;;5095937;28;20468;-82
2024/01/22 09:51:35;;;;;;;4.50;2.97;;;11.30;99.90;;;;;;5095627;28;20467;-83
2024/01/22 09:54:07;;;;;;;7.53;2.47;;;11.30;99.90;;;;;;5096597;28;20468;-80
2024/01/22 09:56:38;;;;;;;7.20;3.40;;;11.30;99.90;;;;;;5096198;28;20445;-85
2024/01/22 09:59:17;;;;;;;6.40;2.80;;;11.30;99.90;;;;;;5096062;28;20480;-83
2024/01/22 10:01:47;;;;;;;7.10;3.33;;;11.30;99.90;;;;;;5095612;28;20460;-82
2024/01/22 10:04:16;;;;;;;7.40;3.03;;;11.30;99.90;;;;;;5099119;28;20419;-86
2024/01/22 10:06:46;;;;;;;4.90;2.80;;;11.30;99.90;;;;;;5100706;28;20443;-81
2024/01/22 10:09:17;;;;;;;9.50;3.40;;;11.30;99.90;;;;;;5113045;28;20485;-82
2024/01/22 10:11:48;;;;;;;7.87;3.77;;;11.20;99.90;;;;;;5114709;28;20468;-84
2024/01/22 10:14:16;;;;;;;5.83;2.90;;;11.20;99.90;;;;;;5116519;28;20507;-86
2024/01/22 10:16:45;;;;;;;6.27;2.90;;;11.20;99.90;;;;;;5114346;28;20466;-82
2024/01/22 10:19:13;;;;;;;7.50;3.73;;;11.20;99.90;;;;;;5098458;28;20491;-86
2024/01/22 10:21:42;;;;;;;5.90;3.40;;;11.20;99.90;;;;;;5104738;28;21000;-83
2024/01/22 10:24:10;;;;;;;5.80;3.80;;;11.10;99.90;;;;;;5103976;28;20440;-84
2024/01/22 10:26:40;;;;;;;6.60;3.17;;;11.10;99.90;;;;;;5102193;28;20449;-84
2024/01/22 10:29:17;;;;;;;6.03;3.40;;;11.10;99.90;;;;;;5102151;28;20493;-81
2024/01/22 10:31:56;;;;;;;6.87;3.30;;;11.10;99.90;;;;;;5102411;28;20451;-79
2024/01/22 10:34:28;;;;;;;4.23;2.70;;;11.10;99.90;;;;;;5101673;28;21067;-82
2024/01/22 10:37:07;;;;;;;8.67;4.20;;;11.10;99.90;;;;;;5099913;28;20533;-78
2024/01/22 10:39:37;;;;;;;6.03;3.20;;;11.00;99.90;;;;;;5098663;28;20455;-80
2024/01/22 10:42:12;;;;;;;7.23;3.80;;;11.00;99.90;;;;;;5098337;28;20845;-78
2024/01/22 10:44:42;;;;;;;9.33;5.10;;;11.00;99.90;;;;;;5098551;28;20436;-80
2024/01/22 10:47:12;;;;;;;6.70;4.23;;;11.00;99.90;;;;;;5100197;28;20452;-78
2024/01/22 10:49:43;;;;;;;6.00;4.80;;;11.00;99.90;;;;;;5098879;28;20517;-79
2024/01/22 10:52:13;;;;;;;9.20;4.70;;;11.00;99.90;;;;;;5100379;28;20508;-79
2024/01/22 10:54:41;;;;;;;6.70;3.00;;;11.00;99.90;;;;;;5098497;28;20503;-80
2024/01/22 10:57:15;;;;;;;15.27;5.40;;;11.00;99.90;;;;;;5098956;28;20467;-80
2024/01/22 10:59:48;;;;;;;10.27;4.33;;;10.90;99.90;;;;;;5100938;28;20452;-81
2024/01/22 11:02:22;;;;;;;10.10;3.83;;;11.00;99.90;;;;;;5100615;28;20468;-80
2024/01/22 11:04:55;;;;;;;11.73;3.27;;;11.00;99.90;;;;;;5104397;28;20520;-81
2024/01/22 11:07:28;;;;;;;11.33;4.47;;;11.00;99.90;;;;;;5102599;28;20429;-80
2024/01/22 11:09:58;;;;;;;11.80;5.20;;;11.00;99.90;;;;;;5104297;28;20436;-80
2024/01/22 11:12:39;;;;;;;13.10;5.10;;;11.10;99.90;;;;;;5102611;28;21041;-81
2024/01/22 11:15:08;;;;;;;12.10;3.97;;;11.00;99.90;;;;;;5102514;28;20468;-79
2024/01/22 11:17:37;;;;;;;14.13;3.63;;;11.10;99.90;;;;;;5103051;28;20527;-83
2024/01/22 11:20:15;;;;;;;11.07;4.40;;;11.00;99.90;;;;;;5103304;28;20491;-80
2024/01/22 11:22:50;;;;;;;10.63;4.77;;;11.10;99.90;;;;;;5101108;28;20456;-80
2024/01/22 11:25:18;;;;;;;11.13;3.80;;;11.10;99.90;;;;;;5099870;28;20436;-80
2024/01/22 11:27:48;;;;;;;14.20;4.90;;;11.10;99.90;;;;;;5100426;28;20854;-81
2024/01/22 11:30:36;;;;;;;11.03;4.23;;;11.10;99.90;;;;;;5102696;28;20452;-80
2024/01/22 11:33:33;;;;;;;12.43;4.40;;;11.10;99.90;;;;;;5104763;28;20498;-80
2024/01/22 11:36:02;;;;;;;14.23;5.77;;;11.00;99.90;;;;;;5102817;28;20471;-79
2024/01/22 11:38:50;;;;;;;15.30;5.63;;;11.00;99.90;;;;;;5103401;28;20452;-81
2024/01/22 11:41:33;;;;;;;11.27;5.47;;;11.10;99.90;;;;;;5100394;28;20441;-80
2024/01/22 11:44:04;;;;;;;16.33;5.13;;;11.00;99.90;;;;;;5099490;28;20459;-79
2024/01/22 11:46:32;;;;;;;11.57;5.83;;;11.00;99.90;;;;;;5102557;28;20467;-80
2024/01/22 11:49:09;;;;;;;16.23;6.07;;;11.00;99.90;;;;;;5100708;28;20429;-78
2024/01/22 11:51:38;;;;;;;18.30;6.10;;;11.10;99.90;;;;;;5100832;28;20471;-80
2024/01/22 11:54:08;;;;;;;13.70;5.10;;;11.00;99.90;;;;;;5101401;28;20445;-80
2024/01/22 11:56:37;;;;;;;13.40;6.60;;;11.00;99.90;;;;;;5102657;28;20448;-80
2024/01/22 11:59:07;;;;;;;20.00;5.97;;;11.00;99.90;;;;;;5099954;28;20477;-80
2024/01/22 12:01:35;;;;;;;24.03;6.20;;;11.00;99.90;;;;;;5099919;28;20502;-80
2024/01/22 12:04:09;;;;;;;15.83;6.10;;;11.00;99.90;;;;;;5099477;28;20440;-81
2024/01/22 12:06:49;;;;;;;17.50;6.17;;;11.00;99.90;;;;;;5099268;28;20440;-81
2024/01/22 12:09:19;;;;;;;17.50;6.97;;;11.00;99.90;;;;;;5099256;28;20483;-81
2024/01/22 12:11:53;;;;;;;17.47;6.50;;;11.00;99.90;;;;;;5100416;28;20464;-81
2024/01/22 12:14:25;;;;;;;20.17;6.10;;;11.00;99.90;;;;;;5099748;28;20798;-81
2024/01/22 12:17:00;;;;;;;18.53;5.97;;;11.00;99.90;;;;;;5097910;28;21053;-80
2024/01/22 12:19:29;;;;;;;16.97;7.30;;;11.00;99.90;;;;;;5097002;28;20481;-80
2024/01/22 12:21:57;;;;;;;17.27;5.93;;;11.00;99.90;;;;;;5096643;28;20469;-80
2024/01/22 12:24:26;;;;;;;25.60;7.00;;;11.00;99.90;;;;;;5097372;28;20452;-81
2024/01/22 12:26:54;;;;;;;18.63;6.00;;;11.00;99.90;;;;;;5098110;28;20949;-81
2024/01/22 12:29:25;;;;;;;21.00;7.20;;;10.90;99.90;;;;;;5097685;28;20451;-81
2024/01/22 12:32:04;;;;;;;16.20;5.90;;;10.90;99.90;;;;;;5099175;28;20456;-81
2024/01/22 12:34:33;;;;;;;18.87;6.27;;;10.90;99.90;;;;;;5097527;28;20442;-81
2024/01/22 12:37:13;;;;;;;16.63;5.83;;;10.80;99.90;;;;;;5097268;28;20805;-81
2024/01/22 12:39:41;;;;;;;18.93;6.93;;;10.90;99.90;;;;;;5099529;28;20420;-82
2024/01/22 12:42:18;;;;;;;18.40;6.60;;;10.80;99.90;;;;;;5097755;28;20472;-80
2024/01/22 12:44:58;;;;;;;21.10;7.00;;;10.80;99.90;;;;;;5097466;28;20429;-79
2024/01/22 12:47:26;;;;;;;19.80;7.33;;;10.80;99.90;;;;;;5097878;28;20452;-82
2024/01/22 12:49:57;;;;;;;16.73;5.90;;;10.80;99.90;;;;;;5097412;28;20524;-81
2024/01/22 12:52:25;;;;;;;19.00;6.47;;;10.70;99.90;;;;;;5097604;28;20541;-82
2024/01/22 12:54:54;;;;;;;18.47;5.53;;;10.70;99.90;;;;;;5096915;28;20453;-82
2024/01/22 12:57:23;;;;;;;18.17;5.93;;;10.70;99.90;;;;;;5099171;28;20443;-83
2024/01/22 12:59:51;;;;;;;22.77;6.50;;;10.70;99.90;;;;;;5096673;28;20484;-83
2024/01/22 13:02:21;;;;;;;19.27;6.90;;;10.70;99.90;;;;;;5096976;28;20448;-80